createdAt,value
2022-09-23T00:01:15.116Z,100911.37
2022-09-23T00:03:45.549Z,100899.09
2022-09-23T00:06:18.243Z,100904.38
2022-09-23T00:08:45.143Z,100907.87
2022-09-23T00:11:17.481Z,100908.75
2022-09-23T00:13:46.206Z,100904.28
2022-09-23T00:16:19.724Z,100906.88
2022-09-23T00:18:46.529Z,100905.97
2022-09-23T00:21:14.736Z,100911.19
2022-09-23T00:23:43.012Z,100899.75
2022-09-23T00:26:12.868Z,100890.94
2022-09-23T00:28:40.624Z,100890.91
2022-09-23T00:31:10.422Z,100892.66
2022-09-23T00:33:37.442Z,100896.97
2022-09-23T00:36:07.213Z,100889.91
2022-09-23T00:38:34.239Z,100890.78
2022-09-23T00:41:01.038Z,100894.25
2022-09-23T00:43:42.891Z,100891.56
2022-09-23T00:46:14.233Z,100888.00
2022-09-23T00:48:43.355Z,100887.09
2022-09-23T00:51:17.943Z,100856.25
2022-09-23T00:53:48.581Z,100881.78
2022-09-23T00:56:15.995Z,100882.66
2022-09-23T00:58:46.857Z,100883.50
2022-09-23T01:01:14.492Z,100890.56
2022-09-23T01:03:45.808Z,100881.69
2022-09-23T01:06:13.370Z,100884.25
2022-09-23T01:08:42.979Z,100881.63
2022-09-23T01:11:14.774Z,100878.97
2022-09-23T01:14:05.996Z,100889.44
2022-09-23T01:16:44.109Z,100882.34
2022-09-23T01:19:47.861Z,100884.13
2022-09-23T01:22:21.791Z,100885.03
2022-09-23T01:24:59.933Z,100881.50
2022-09-23T01:27:36.554Z,100885.91
2022-09-23T01:30:17.972Z,100879.66
2022-09-23T01:33:05.037Z,100875.19
2022-09-23T01:35:56.216Z,100876.00
2022-09-23T01:39:00.259Z,100884.78
2022-09-23T01:41:45.561Z,100882.97
2022-09-23T01:44:21.593Z,100892.62
2022-09-23T01:46:59.867Z,100886.50
2022-09-23T01:49:37.764Z,100881.19
2022-09-23T01:52:15.708Z,100882.06
2022-09-23T01:55:10.034Z,100883.78
2022-09-23T01:58:01.105Z,100882.06
2022-09-23T02:00:32.039Z,100877.66
2022-09-23T02:03:05.996Z,100884.66
2022-09-23T02:05:38.182Z,100874.88
2022-09-23T02:08:08.813Z,100882.91
2022-09-23T02:10:45.618Z,100885.50
2022-09-23T02:13:20.619Z,100876.66
2022-09-23T02:15:51.905Z,100873.97
2022-09-23T02:18:28.943Z,100870.47
2022-09-23T02:21:03.470Z,100854.47
2022-09-23T02:23:36.811Z,100870.34
2022-09-23T02:26:26.953Z,100873.78
2022-09-23T02:29:08.130Z,100873.72
2022-09-23T02:31:55.168Z,100878.03
2022-09-23T02:34:55.663Z,100877.16
2022-09-23T02:37:54.463Z,100878.88
2022-09-23T02:40:40.869Z,100885.00
2022-09-23T02:43:15.129Z,100875.31
2022-09-23T02:45:41.890Z,100883.97
2022-09-23T02:48:34.615Z,100884.87
2022-09-23T02:51:03.667Z,100883.97
2022-09-23T02:53:33.963Z,100887.50
2022-09-23T02:56:02.210Z,100878.72
2022-09-23T02:58:30.004Z,100890.13
2022-09-23T03:01:11.638Z,100886.53
2022-09-23T03:03:53.860Z,100883.84
2022-09-23T03:06:26.696Z,100884.78
2022-09-23T03:09:01.183Z,100884.72
2022-09-23T03:11:28.503Z,100879.44
2022-09-23T03:14:19.838Z,100877.75
2022-09-23T03:16:59.193Z,100875.97
2022-09-23T03:19:34.831Z,100874.19
2022-09-23T03:22:12.640Z,100875.84
2022-09-23T03:24:44.901Z,100877.59
2022-09-23T03:27:18.764Z,100887.13
2022-09-23T03:29:51.238Z,100880.09
2022-09-23T03:32:21.867Z,100886.19
2022-09-23T03:34:52.260Z,100880.94
2022-09-23T03:37:44.156Z,100875.66
2022-09-23T03:40:35.313Z,100879.12
2022-09-23T03:43:04.547Z,100877.22
2022-09-23T03:45:34.021Z,100875.50
2022-09-23T03:48:01.515Z,100875.44
2022-09-23T03:50:28.592Z,100879.81
2022-09-23T03:52:55.928Z,100881.53
2022-09-23T03:55:22.770Z,100880.63
2022-09-23T03:57:49.883Z,100885.81
2022-09-23T04:00:16.772Z,100883.25
2022-09-23T04:02:44.412Z,100887.63
2022-09-23T04:05:13.387Z,100890.19
2022-09-23T04:07:41.105Z,100872.50
2022-09-23T04:10:10.030Z,100881.31
2022-09-23T04:12:37.830Z,100886.47
2022-09-23T04:15:05.162Z,100886.47
2022-09-23T04:17:31.980Z,100874.19
2022-09-23T04:19:58.878Z,100870.53
2022-09-23T04:22:27.585Z,100882.84
2022-09-23T04:24:54.790Z,100881.91
2022-09-23T04:27:21.675Z,100882.78
2022-09-23T04:29:48.443Z,100880.97
2022-09-23T04:32:15.315Z,100881.00
2022-09-23T04:34:43.037Z,100884.47
2022-09-23T04:37:09.838Z,100882.66
2022-09-23T04:39:36.598Z,100888.81
2022-09-23T04:42:04.338Z,100887.03
2022-09-23T04:44:31.202Z,100884.41
2022-09-23T04:46:58.529Z,100893.12
2022-09-23T04:49:26.270Z,100884.31
2022-09-23T04:51:53.153Z,100891.28
2022-09-23T04:54:20.031Z,100886.00
2022-09-23T04:56:46.882Z,100895.75
2022-09-23T04:59:15.822Z,100896.69
2022-09-23T05:01:43.657Z,100901.09
2022-09-23T05:04:13.967Z,100909.00
2022-09-23T05:06:45.106Z,100907.34
2022-09-23T05:09:16.675Z,100905.63
2022-09-23T05:11:43.987Z,100914.50
2022-09-23T05:14:11.004Z,100912.88
2022-09-23T05:16:37.849Z,100920.94
2022-09-23T05:19:05.484Z,100921.03
2022-09-23T05:21:32.368Z,100923.69
2022-09-23T05:24:00.869Z,100923.78
2022-09-23T05:26:30.920Z,100924.81
2022-09-23T05:28:58.521Z,100923.19
2022-09-23T05:31:30.075Z,100925.88
2022-09-23T05:33:58.977Z,100926.03
2022-09-23T05:36:27.931Z,100916.53
2022-09-23T05:38:56.896Z,100926.31
2022-09-23T05:41:25.322Z,100928.19
2022-09-23T05:43:54.026Z,100917.78
2022-09-23T05:46:23.428Z,100931.06
2022-09-23T05:48:51.244Z,100925.88
2022-09-23T05:51:26.423Z,100934.78
2022-09-23T05:53:58.342Z,100932.25
2022-09-23T05:56:27.584Z,100935.88
2022-09-23T05:58:56.584Z,100935.03
2022-09-23T06:01:28.259Z,100938.66
2022-09-23T06:03:57.157Z,100937.84
2022-09-23T06:06:36.255Z,100934.53
2022-09-23T06:09:04.537Z,100929.31
2022-09-23T06:11:32.930Z,100934.72
2022-09-23T06:14:09.755Z,100940.91
2022-09-23T06:16:36.782Z,100928.69
2022-09-23T06:19:07.311Z,100934.06
2022-09-23T06:21:36.331Z,100940.31
2022-09-23T06:24:04.093Z,100938.63
2022-09-23T06:26:33.925Z,100943.13
2022-09-23T06:29:04.769Z,100949.31
2022-09-23T06:31:33.044Z,100944.12
2022-09-23T06:34:09.677Z,100930.09
2022-09-23T06:36:43.973Z,100939.81
2022-09-23T06:39:15.781Z,100941.63
2022-09-23T06:41:44.100Z,100950.44
2022-09-23T06:44:11.041Z,100948.75
2022-09-23T06:46:37.942Z,100948.72
2022-09-23T06:49:04.848Z,100952.28
2022-09-23T06:51:32.115Z,100936.41
2022-09-23T06:53:59.042Z,100942.53
2022-09-23T06:56:25.979Z,100939.78
2022-09-23T06:58:53.003Z,100944.12
2022-09-23T07:01:20.072Z,100936.94
2022-09-23T07:03:48.434Z,100943.88
2022-09-23T07:06:17.142Z,100940.12
2022-09-23T07:08:47.178Z,100941.75
2022-09-23T07:11:15.433Z,100940.66
2022-09-23T07:13:42.756Z,100944.06
2022-09-23T07:16:11.138Z,100941.97
2022-09-23T07:18:39.016Z,100939.06
2022-09-23T07:21:15.240Z,100934.38
2022-09-23T07:23:43.327Z,100938.75
2022-09-23T07:26:10.400Z,100950.69
2022-09-23T07:28:38.400Z,100945.94
2022-09-23T07:31:07.871Z,100942.84
2022-09-23T07:33:37.389Z,100951.84
2022-09-23T07:36:10.727Z,100947.88
2022-09-23T07:38:41.499Z,100944.44
2022-09-23T07:41:13.682Z,100939.59
2022-09-23T07:43:41.211Z,100938.28
2022-09-23T07:46:11.199Z,100937.69
2022-09-23T07:48:38.974Z,100925.22
2022-09-23T07:51:21.894Z,100938.63
2022-09-23T07:53:50.034Z,100939.66
2022-09-23T07:56:19.396Z,100937.59
2022-09-23T07:59:00.170Z,100940.41
2022-09-23T08:01:33.850Z,100943.75
2022-09-23T08:04:04.138Z,100938.53
2022-09-23T08:06:31.677Z,100940.53
2022-09-23T08:09:00.079Z,100937.72
2022-09-23T08:11:28.271Z,100937.00
2022-09-23T08:13:55.108Z,100930.25
2022-09-23T08:16:22.209Z,100941.22
2022-09-23T08:18:49.567Z,100936.81
2022-09-23T08:21:23.172Z,100936.44
2022-09-23T08:23:50.803Z,100936.62
2022-09-23T08:26:21.583Z,100935.44
2022-09-23T08:28:50.303Z,100931.66
2022-09-23T08:31:17.311Z,100929.78
2022-09-23T08:33:44.510Z,100922.56
2022-09-23T08:36:11.602Z,100922.06
2022-09-23T08:38:38.590Z,100930.31
2022-09-23T08:41:17.302Z,100932.13
2022-09-23T08:43:49.989Z,100922.38
2022-09-23T08:46:24.131Z,100927.00
2022-09-23T08:48:52.395Z,100922.81
2022-09-23T08:51:51.337Z,100910.22
2022-09-23T08:54:18.343Z,100919.28
2022-09-23T08:56:52.256Z,100915.19
2022-09-23T08:59:37.050Z,100907.53
2022-09-23T09:02:20.278Z,100907.38
2022-09-23T09:04:54.513Z,100903.91
2022-09-23T09:07:36.577Z,100902.75
2022-09-23T09:10:15.238Z,100904.09
2022-09-23T09:12:51.341Z,100900.72
2022-09-23T09:15:25.153Z,100890.50
2022-09-23T09:18:11.431Z,100901.91
2022-09-23T09:20:59.644Z,100895.63
2022-09-23T09:23:38.801Z,100899.09
2022-09-23T09:26:06.428Z,100891.34
2022-09-23T09:28:45.148Z,100895.47
2022-09-23T09:31:12.122Z,100890.53
2022-09-23T09:33:58.297Z,100886.47
2022-09-23T09:36:40.325Z,100880.09
2022-09-23T09:39:16.538Z,100883.56
2022-09-23T09:41:49.832Z,100879.28
2022-09-23T09:44:45.077Z,100880.78
2022-09-23T09:47:34.287Z,100867.75
2022-09-23T09:50:04.223Z,100874.03
2022-09-23T09:52:31.828Z,100874.59
2022-09-23T09:55:13.844Z,100859.66
2022-09-23T09:57:53.335Z,100863.00
2022-09-23T10:00:26.412Z,100859.56
2022-09-23T10:03:01.122Z,100855.03
2022-09-23T10:05:49.215Z,100849.50
2022-09-23T10:08:26.094Z,100855.41
2022-09-23T10:11:01.478Z,100860.13
2022-09-23T10:13:30.169Z,100856.25
2022-09-23T10:16:04.073Z,100846.44
2022-09-23T10:18:38.161Z,100855.81
2022-09-23T10:21:13.328Z,100857.75
2022-09-23T10:23:48.667Z,100849.44
2022-09-23T10:26:18.626Z,100848.56
2022-09-23T10:28:55.921Z,100842.50
2022-09-23T10:31:25.031Z,100855.78
2022-09-23T10:33:55.586Z,100831.19
2022-09-23T10:36:22.460Z,100833.75
2022-09-23T10:38:55.038Z,100837.03
2022-09-23T10:41:54.667Z,100838.25
2022-09-23T10:45:02.712Z,100830.72
2022-09-23T10:47:42.004Z,100824.44
2022-09-23T10:50:29.710Z,100832.97
2022-09-23T10:53:05.091Z,100829.28
2022-09-23T10:56:01.075Z,100832.78
2022-09-23T10:58:50.487Z,100832.66
2022-09-23T11:01:17.398Z,100832.38
2022-09-23T11:04:06.074Z,100832.44
2022-09-23T11:06:58.661Z,100819.97
2022-09-23T11:10:18.451Z,100821.25
2022-09-23T11:13:15.947Z,100812.25
2022-09-23T11:16:15.118Z,100808.69
2022-09-23T11:18:56.838Z,100805.19
2022-09-23T11:21:58.397Z,100800.66
2022-09-23T11:24:58.423Z,100801.97
2022-09-23T11:27:57.275Z,100800.59
2022-09-23T11:30:40.393Z,100794.59
2022-09-23T11:33:27.998Z,100782.31
2022-09-23T11:36:01.960Z,100778.66
2022-09-23T11:38:35.546Z,100778.12
2022-09-23T11:41:20.222Z,100785.28
2022-09-23T11:43:52.356Z,100771.63
2022-09-23T11:47:08.142Z,100789.53
2022-09-23T11:49:53.852Z,100772.53
2022-09-23T11:52:27.663Z,100770.19
2022-09-23T11:55:08.085Z,100780.00
2022-09-23T11:57:49.289Z,100778.53
2022-09-23T12:00:20.808Z,100776.56
2022-09-23T12:03:38.218Z,100775.75
2022-09-23T12:06:16.530Z,100766.56
2022-09-23T12:08:44.489Z,100773.53
2022-09-23T12:11:23.327Z,100770.06
2022-09-23T12:14:27.139Z,100767.25
2022-09-23T12:16:58.202Z,100758.94
2022-09-23T12:19:43.892Z,100760.03
2022-09-23T12:22:39.412Z,100763.78
2022-09-23T12:25:10.399Z,100760.69
2022-09-23T12:27:50.457Z,100758.69
2022-09-23T12:30:25.435Z,100756.06
2022-09-23T12:32:53.010Z,100752.78
2022-09-23T12:35:24.308Z,100751.91
2022-09-23T12:37:52.745Z,100749.72
2022-09-23T12:40:43.868Z,100745.09
2022-09-23T12:43:31.467Z,100733.31
2022-09-23T12:46:27.375Z,100736.84
2022-09-23T12:48:58.114Z,100722.31
2022-09-23T12:51:30.394Z,100727.09
2022-09-23T12:54:04.457Z,100726.50
2022-09-23T12:56:31.224Z,100724.59
2022-09-23T12:59:26.099Z,100715.56
2022-09-23T13:01:54.190Z,100710.06
2022-09-23T13:05:01.834Z,100710.91
2022-09-23T13:07:34.196Z,100711.44
2022-09-23T13:10:09.129Z,100710.78
2022-09-23T13:12:39.481Z,100701.69
2022-09-23T13:15:17.276Z,100703.22
2022-09-23T13:17:44.868Z,100706.72
2022-09-23T13:20:21.177Z,100703.81
2022-09-23T13:22:54.023Z,100705.50
2022-09-23T13:25:29.425Z,100712.63
2022-09-23T13:28:00.544Z,100703.69
2022-09-23T13:30:27.995Z,100702.50
2022-09-23T13:33:13.974Z,100700.34
2022-09-23T13:35:50.718Z,100699.69
2022-09-23T13:38:26.186Z,100702.44
2022-09-23T13:41:21.589Z,100707.00
2022-09-23T13:43:52.118Z,100700.88
2022-09-23T13:46:24.574Z,100699.47
2022-09-23T13:48:54.765Z,100697.50
2022-09-23T13:51:27.091Z,100703.81
2022-09-23T13:53:55.691Z,100700.38
2022-09-23T13:56:24.100Z,100696.69
2022-09-23T13:58:52.326Z,100701.06
2022-09-23T14:01:35.939Z,100700.09
2022-09-23T14:04:03.078Z,100692.97
2022-09-23T14:06:31.608Z,100691.03
2022-09-23T14:09:01.554Z,100694.75
2022-09-23T14:11:32.045Z,100689.38
2022-09-23T14:14:03.567Z,100689.59
2022-09-23T14:16:30.438Z,100679.84
2022-09-23T14:19:00.609Z,100684.22
2022-09-23T14:21:27.395Z,100679.22
2022-09-23T14:23:54.339Z,100679.16
2022-09-23T14:26:24.130Z,100675.44
2022-09-23T14:28:52.313Z,100673.06
2022-09-23T14:31:19.362Z,100664.22
2022-09-23T14:33:46.994Z,100665.72
2022-09-23T14:36:35.909Z,100674.63
2022-09-23T14:39:08.551Z,100668.47
2022-09-23T14:41:38.675Z,100666.91
2022-09-23T14:44:07.523Z,100656.94
2022-09-23T14:46:37.926Z,100672.38
2022-09-23T14:49:11.817Z,100664.88
2022-09-23T14:51:45.363Z,100665.34
2022-09-23T14:54:34.766Z,100648.28
2022-09-23T14:57:28.029Z,100660.50
2022-09-23T15:00:06.750Z,100651.63
2022-09-23T15:02:39.359Z,100656.22
2022-09-23T15:05:23.778Z,100656.28
2022-09-23T15:07:56.065Z,100656.34
2022-09-23T15:10:27.850Z,100658.94
2022-09-23T15:13:05.311Z,100659.03
2022-09-23T15:15:32.372Z,100657.41
2022-09-23T15:18:08.103Z,100657.47
2022-09-23T15:20:35.984Z,100655.06
2022-09-23T15:23:02.810Z,100649.63
2022-09-23T15:25:35.604Z,100650.87
2022-09-23T15:28:08.314Z,100640.69
2022-09-23T15:30:36.234Z,100650.81
2022-09-23T15:33:03.104Z,100636.63
2022-09-23T15:35:32.270Z,100627.59
2022-09-23T15:38:01.724Z,100638.16
2022-09-23T15:40:34.256Z,100640.72
2022-09-23T15:43:20.734Z,100644.16
2022-09-23T15:45:54.363Z,100643.91
2022-09-23T15:48:27.460Z,100648.41
2022-09-23T15:50:54.807Z,100643.81
2022-09-23T15:53:27.834Z,100654.88
2022-09-23T15:55:54.655Z,100652.44
2022-09-23T15:58:27.491Z,100656.06
2022-09-23T16:00:57.152Z,100655.59
2022-09-23T16:03:28.513Z,100652.19
2022-09-23T16:06:00.131Z,100645.41
2022-09-23T16:08:28.253Z,100629.87
2022-09-23T16:10:55.460Z,100647.09
2022-09-23T16:13:23.051Z,100626.75
2022-09-23T16:15:50.115Z,100650.78
2022-09-23T16:18:17.065Z,100654.91
2022-09-23T16:20:45.882Z,100660.75
2022-09-23T16:23:34.534Z,100651.63
2022-09-23T16:26:25.013Z,100649.50
2022-09-23T16:28:54.837Z,100640.31
2022-09-23T16:31:25.247Z,100644.56
2022-09-23T16:33:53.293Z,100647.75
2022-09-23T16:36:37.868Z,100648.53
2022-09-23T16:39:07.485Z,100652.50
2022-09-23T16:41:34.346Z,100648.50
2022-09-23T16:44:04.450Z,100646.31
2022-09-23T16:46:31.490Z,100647.56
2022-09-23T16:48:58.872Z,100647.94
2022-09-23T16:51:31.700Z,100645.72
2022-09-23T16:54:00.094Z,100647.81
2022-09-23T16:56:31.166Z,100642.78
2022-09-23T16:58:58.051Z,100651.06
2022-09-23T17:01:46.384Z,100647.88
2022-09-23T17:04:14.450Z,100650.69
2022-09-23T17:06:45.112Z,100659.81
2022-09-23T17:09:12.254Z,100652.12
2022-09-23T17:11:39.125Z,100652.72
2022-09-23T17:14:06.976Z,100656.59
2022-09-23T17:16:35.247Z,100656.84
2022-09-23T17:19:10.579Z,100653.38
2022-09-23T17:21:37.540Z,100649.22
2022-09-23T17:24:04.833Z,100651.25
2022-09-23T17:26:32.229Z,100655.00
2022-09-23T17:29:00.371Z,100655.13
2022-09-23T17:31:27.470Z,100650.06
2022-09-23T17:33:54.719Z,100650.25
2022-09-23T17:36:22.084Z,100655.75
2022-09-23T17:38:53.638Z,100653.25
2022-09-23T17:41:20.853Z,100654.13
2022-09-23T17:43:48.416Z,100657.81
2022-09-23T17:46:19.286Z,100661.53
2022-09-23T17:48:46.715Z,100656.44
2022-09-23T17:51:16.136Z,100656.59
2022-09-23T17:53:45.518Z,100667.25
2022-09-23T17:56:21.225Z,100671.06
2022-09-23T17:58:49.536Z,100668.63
2022-09-23T18:01:20.751Z,100674.03
2022-09-23T18:03:48.518Z,100673.25
2022-09-23T18:06:20.881Z,100671.63
2022-09-23T18:08:49.566Z,100677.00
2022-09-23T18:11:27.610Z,100675.38
2022-09-23T18:14:00.376Z,100682.56
2022-09-23T18:16:30.839Z,100685.38
2022-09-23T18:19:00.460Z,100686.38
2022-09-23T18:21:30.935Z,100685.56
2022-09-23T18:24:15.644Z,100677.63
2022-09-23T18:26:45.857Z,100677.81
2022-09-23T18:31:39.770Z,100682.41
2022-09-23T18:34:11.150Z,100681.56
2022-09-23T18:36:38.168Z,100684.28
2022-09-23T18:39:05.683Z,100680.78
2022-09-23T18:41:32.869Z,100680.81
2022-09-23T18:44:00.143Z,100680.06
2022-09-23T18:46:30.208Z,100685.59
2022-09-23T18:49:16.771Z,100674.19
2022-09-23T18:51:55.802Z,100672.50
2022-09-23T18:54:24.313Z,100683.94
2022-09-23T18:56:52.851Z,100684.91
2022-09-23T18:59:23.868Z,100692.03
2022-09-23T19:01:51.168Z,100694.75
2022-09-23T19:04:20.303Z,100698.34
2022-09-23T19:06:47.977Z,100688.63
2022-09-23T19:09:16.370Z,100685.13
2022-09-23T19:11:44.425Z,100697.56
2022-09-23T19:14:11.914Z,100691.44
2022-09-23T19:16:41.200Z,100694.13
2022-09-23T19:19:08.771Z,100697.72
2022-09-23T19:21:37.061Z,100696.00
2022-09-23T19:24:06.478Z,100692.56
2022-09-23T19:26:37.588Z,100695.25
2022-09-23T19:29:08.218Z,100694.37
2022-09-23T19:31:40.078Z,100691.81
2022-09-23T19:34:11.585Z,100689.19
2022-09-23T19:36:42.241Z,100691.84
2022-09-23T19:39:16.620Z,100682.19
2022-09-23T19:41:44.179Z,100692.81
2022-09-23T19:44:11.852Z,100699.06
2022-09-23T19:46:40.896Z,100699.09
2022-09-23T19:49:08.275Z,100698.22
2022-09-23T19:51:35.628Z,100698.25
2022-09-23T19:54:04.860Z,100695.63
2022-09-23T19:56:33.236Z,100702.72
2022-09-23T19:59:03.041Z,100685.09
2022-09-23T20:01:32.012Z,100688.66
2022-09-23T20:03:59.764Z,100703.66
2022-09-23T20:06:31.913Z,100696.59
2022-09-23T20:09:00.894Z,100703.66
2022-09-23T20:11:28.822Z,100701.87
2022-09-23T20:14:01.330Z,100700.16
2022-09-23T20:16:32.180Z,100702.84
2022-09-23T20:19:00.001Z,100704.66
2022-09-23T20:21:28.206Z,100703.78
2022-09-23T20:23:55.323Z,100709.09
2022-09-23T20:26:40.885Z,100700.31
2022-09-23T20:29:08.982Z,100691.53
2022-09-23T20:31:36.115Z,100698.56
2022-09-23T20:34:05.695Z,100696.81
2022-09-23T20:36:34.064Z,100695.94
2022-09-23T20:39:04.048Z,100695.06
2022-09-23T20:41:33.628Z,100695.09
2022-09-23T20:44:00.681Z,100695.09
2022-09-23T20:46:28.763Z,100688.97
2022-09-23T20:48:56.880Z,100688.97
2022-09-23T20:51:24.820Z,100686.34
2022-09-23T20:53:52.957Z,100690.78
2022-09-23T20:56:23.381Z,100698.69
2022-09-23T20:58:52.530Z,100695.16
2022-09-23T21:01:19.485Z,100698.69
2022-09-23T21:03:50.166Z,100688.13
2022-09-23T21:06:19.471Z,100693.41
2022-09-23T21:08:46.714Z,100693.41
2022-09-23T21:11:17.940Z,100694.31
2022-09-23T21:13:46.316Z,100699.59
2022-09-23T21:16:14.288Z,100696.09
2022-09-23T21:18:41.120Z,100689.06
2022-09-23T21:21:08.125Z,100697.00
2022-09-23T21:23:38.037Z,100690.84
2022-09-23T21:26:04.844Z,100699.62
2022-09-23T21:28:33.425Z,100707.53
2022-09-23T21:31:02.318Z,100706.69
2022-09-23T21:33:30.439Z,100711.97
2022-09-23T21:36:03.441Z,100705.81
2022-09-23T21:38:33.630Z,100704.91
2022-09-23T21:41:02.368Z,100706.66
2022-09-23T21:43:33.271Z,100698.75
2022-09-23T21:46:05.689Z,100699.62
2022-09-23T21:48:34.840Z,100700.50
2022-09-23T21:51:03.016Z,100691.72
2022-09-23T21:53:31.722Z,100694.34
2022-09-23T21:56:21.493Z,100703.12
2022-09-23T21:58:48.974Z,100704.00
2022-09-23T22:01:18.727Z,100707.50
2022-09-23T22:04:08.133Z,100706.62
2022-09-23T22:06:38.143Z,100707.50
2022-09-23T22:09:08.920Z,100711.00
2022-09-23T22:11:55.792Z,100704.84
2022-09-23T22:14:25.526Z,100710.09
2022-09-23T22:16:57.569Z,100703.06
2022-09-23T22:19:26.652Z,100712.72
2022-09-23T22:21:54.022Z,100706.56
2022-09-23T22:24:20.829Z,100709.19
2022-09-23T22:26:47.583Z,100714.44
2022-09-23T22:29:34.588Z,100711.81
2022-09-23T22:32:21.772Z,100712.66
2022-09-23T22:34:51.043Z,100710.03
2022-09-23T22:37:32.370Z,100708.22
2022-09-23T22:39:59.169Z,100712.59
2022-09-23T22:42:27.546Z,100714.34
2022-09-23T22:44:55.629Z,100712.59
2022-09-23T22:47:22.544Z,100713.44
2022-09-23T22:49:52.326Z,100711.69
2022-09-23T22:52:24.172Z,100705.56
2022-09-23T22:54:52.223Z,100709.91
2022-09-23T22:57:19.613Z,100709.03
2022-09-23T22:59:50.253Z,100709.88
2022-09-23T23:02:18.961Z,100709.91
2022-09-23T23:04:49.850Z,100709.91
2022-09-23T23:07:22.385Z,100708.09
2022-09-23T23:09:50.617Z,100715.09
2022-09-23T23:12:20.467Z,100717.75
2022-09-23T23:14:48.238Z,100708.94
2022-09-23T23:17:15.090Z,100713.31
2022-09-23T23:19:41.909Z,100707.06
2022-09-23T23:22:08.667Z,100709.72
2022-09-23T23:24:35.419Z,100709.72
2022-09-23T23:27:05.339Z,100711.44
2022-09-23T23:29:32.223Z,100714.94
2022-09-23T23:31:59.059Z,100714.03
2022-09-23T23:34:25.961Z,100714.87
2022-09-23T23:36:55.090Z,100706.91
2022-09-23T23:39:24.029Z,100717.44
2022-09-23T23:41:55.134Z,100698.94
2022-09-23T23:44:23.910Z,100711.19
2022-09-23T23:46:51.257Z,100713.84
2022-09-23T23:49:18.126Z,100712.06
2022-09-23T23:51:44.945Z,100704.16
2022-09-23T23:54:12.511Z,100705.00
2022-09-23T23:56:39.518Z,100699.69
2022-09-23T23:59:06.530Z,100704.06
